sensor_id;sensor_type;location;lat;lon;timestamp;P1;durP1;ratioP1;P2;durP2;ratioP2
20982;SDS011;10650;51.528;6.748;2023-02-18T00:01:32;29.67;;;23.30;;
20982;SDS011;10650;51.528;6.748;2023-02-18T00:04:00;25.98;;;20.80;;
20982;SDS011;10650;51.528;6.748;2023-02-18T00:06:30;27.95;;;22.83;;
20982;SDS011;10650;51.528;6.748;2023-02-18T00:08:59;30.45;;;23.10;;
20982;SDS011;10650;51.528;6.748;2023-02-18T00:11:28;28.13;;;23.02;;
20982;SDS011;10650;51.528;6.748;2023-02-18T00:13:58;29.58;;;23.08;;
20982;SDS011;10650;51.528;6.748;2023-02-18T00:16:28;31.38;;;23.33;;
20982;SDS011;10650;51.528;6.748;2023-02-18T00:18:57;27.30;;;21.67;;
20982;SDS011;10650;51.528;6.748;2023-02-18T00:21:27;28.63;;;22.15;;
20982;SDS011;10650;51.528;6.748;2023-02-18T00:23:57;28.38;;;22.98;;
20982;SDS011;10650;51.528;6.748;2023-02-18T00:26:25;26.70;;;21.42;;
20982;SDS011;10650;51.528;6.748;2023-02-18T00:28:53;29.20;;;23.33;;
20982;SDS011;10650;51.528;6.748;2023-02-18T00:31:22;28.23;;;21.85;;
20982;SDS011;10650;51.528;6.748;2023-02-18T00:33:51;23.90;;;20.83;;
20982;SDS011;10650;51.528;6.748;2023-02-18T00:36:20;28.40;;;22.38;;
20982;SDS011;10650;51.528;6.748;2023-02-18T00:38:50;22.73;;;19.45;;
20982;SDS011;10650;51.528;6.748;2023-02-18T00:41:21;30.40;;;23.38;;
20982;SDS011;10650;51.528;6.748;2023-02-18T00:43:51;25.63;;;20.70;;
20982;SDS011;10650;51.528;6.748;2023-02-18T00:46:19;28.60;;;21.85;;
20982;SDS011;10650;51.528;6.748;2023-02-18T00:48:47;23.20;;;20.60;;
20982;SDS011;10650;51.528;6.748;2023-02-18T00:51:16;28.20;;;22.05;;
20982;SDS011;10650;51.528;6.748;2023-02-18T00:53:43;24.77;;;21.85;;
20982;SDS011;10650;51.528;6.748;2023-02-18T00:56:11;26.75;;;21.17;;
20982;SDS011;10650;51.528;6.748;2023-02-18T00:58:40;25.70;;;20.33;;
20982;SDS011;10650;51.528;6.748;2023-02-18T01:01:09;28.80;;;23.08;;
20982;SDS011;10650;51.528;6.748;2023-02-18T01:03:38;25.58;;;21.88;;
20982;SDS011;10650;51.528;6.748;2023-02-18T01:06:07;28.55;;;23.38;;
20982;SDS011;10650;51.528;6.748;2023-02-18T01:08:36;28.02;;;21.90;;
20982;SDS011;10650;51.528;6.748;2023-02-18T01:11:05;28.40;;;22.30;;
20982;SDS011;10650;51.528;6.748;2023-02-18T01:13:34;26.80;;;22.23;;
20982;SDS011;10650;51.528;6.748;2023-02-18T01:16:04;26.45;;;21.55;;
20982;SDS011;10650;51.528;6.748;2023-02-18T01:18:33;29.60;;;21.92;;
20982;SDS011;10650;51.528;6.748;2023-02-18T01:21:00;26.80;;;21.75;;
20982;SDS011;10650;51.528;6.748;2023-02-18T01:23:30;28.33;;;23.50;;
20982;SDS011;10650;51.528;6.748;2023-02-18T01:25:58;30.33;;;23.70;;
20982;SDS011;10650;51.528;6.748;2023-02-18T01:28:25;29.83;;;21.73;;
20982;SDS011;10650;51.528;6.748;2023-02-18T01:30:53;29.67;;;22.80;;
20982;SDS011;10650;51.528;6.748;2023-02-18T01:33:23;27.13;;;21.35;;
20982;SDS011;10650;51.528;6.748;2023-02-18T01:35:51;29.98;;;22.77;;
20982;SDS011;10650;51.528;6.748;2023-02-18T01:38:19;28.52;;;21.92;;
20982;SDS011;10650;51.528;6.748;2023-02-18T01:40:47;28.75;;;22.70;;
20982;SDS011;10650;51.528;6.748;2023-02-18T01:43:17;27.80;;;22.48;;
20982;SDS011;10650;51.528;6.748;2023-02-18T01:45:48;27.25;;;20.85;;
20982;SDS011;10650;51.528;6.748;2023-02-18T01:48:31;27.42;;;21.92;;
20982;SDS011;10650;51.528;6.748;2023-02-18T01:51:06;27.08;;;22.45;;
20982;SDS011;10650;51.528;6.748;2023-02-18T01:53:39;24.58;;;19.77;;
20982;SDS011;10650;51.528;6.748;2023-02-18T01:56:13;28.42;;;20.88;;
20982;SDS011;10650;51.528;6.748;2023-02-18T01:58:48;26.02;;;20.65;;
20982;SDS011;10650;51.528;6.748;2023-02-18T02:01:17;25.10;;;19.92;;
20982;SDS011;10650;51.528;6.748;2023-02-18T02:03:46;26.20;;;19.73;;
20982;SDS011;10650;51.528;6.748;2023-02-18T02:06:15;27.77;;;20.35;;
20982;SDS011;10650;51.528;6.748;2023-02-18T02:08:44;26.75;;;20.35;;
20982;SDS011;10650;51.528;6.748;2023-02-18T02:11:21;24.92;;;19.85;;
20982;SDS011;10650;51.528;6.748;2023-02-18T02:13:59;24.52;;;19.08;;
20982;SDS011;10650;51.528;6.748;2023-02-18T02:16:39;23.60;;;18.15;;
20982;SDS011;10650;51.528;6.748;2023-02-18T02:25:34;22.38;;;18.75;;
20982;SDS011;10650;51.528;6.748;2023-02-18T02:28:36;20.63;;;16.25;;
20982;SDS011;10650;51.528;6.748;2023-02-18T02:31:30;20.98;;;16.35;;
20982;SDS011;10650;51.528;6.748;2023-02-18T02:34:28;19.75;;;16.83;;
20982;SDS011;10650;51.528;6.748;2023-02-18T02:37:08;20.75;;;16.33;;
20982;SDS011;10650;51.528;6.748;2023-02-18T02:39:42;21.23;;;15.98;;
20982;SDS011;10650;51.528;6.748;2023-02-18T02:42:22;21.00;;;17.20;;
20982;SDS011;10650;51.528;6.748;2023-02-18T02:44:58;18.83;;;15.32;;
20982;SDS011;10650;51.528;6.748;2023-02-18T02:47:35;21.73;;;16.02;;
20982;SDS011;10650;51.528;6.748;2023-02-18T02:50:09;18.48;;;15.20;;
20982;SDS011;10650;51.528;6.748;2023-02-18T02:52:43;16.40;;;14.38;;
20982;SDS011;10650;51.528;6.748;2023-02-18T02:55:14;21.55;;;16.27;;
20982;SDS011;10650;51.528;6.748;2023-02-18T02:57:46;20.00;;;16.13;;
20982;SDS011;10650;51.528;6.748;2023-02-18T03:00:17;21.48;;;16.45;;
20982;SDS011;10650;51.528;6.748;2023-02-18T03:02:53;22.77;;;17.00;;
20982;SDS011;10650;51.528;6.748;2023-02-18T03:05:38;21.35;;;16.10;;
20982;SDS011;10650;51.528;6.748;2023-02-18T03:08:23;22.27;;;17.85;;
20982;SDS011;10650;51.528;6.748;2023-02-18T03:11:00;23.92;;;17.08;;
20982;SDS011;10650;51.528;6.748;2023-02-18T03:13:34;14.60;;;11.82;;
20982;SDS011;10650;51.528;6.748;2023-02-18T03:16:13;17.50;;;13.20;;
20982;SDS011;10650;51.528;6.748;2023-02-18T03:18:50;23.30;;;16.40;;
20982;SDS011;10650;51.528;6.748;2023-02-18T03:21:25;22.15;;;15.52;;
20982;SDS011;10650;51.528;6.748;2023-02-18T03:23:56;19.35;;;14.18;;
20982;SDS011;10650;51.528;6.748;2023-02-18T03:28:57;17.98;;;13.60;;
20982;SDS011;10650;51.528;6.748;2023-02-18T03:31:29;17.08;;;13.55;;
20982;SDS011;10650;51.528;6.748;2023-02-18T03:34:01;17.70;;;13.90;;
20982;SDS011;10650;51.528;6.748;2023-02-18T03:39:03;21.35;;;15.57;;
20982;SDS011;10650;51.528;6.748;2023-02-18T03:41:34;24.63;;;15.93;;
20982;SDS011;10650;51.528;6.748;2023-02-18T03:44:03;23.45;;;16.95;;
20982;SDS011;10650;51.528;6.748;2023-02-18T03:46:31;23.90;;;15.85;;
20982;SDS011;10650;51.528;6.748;2023-02-18T03:49:01;27.10;;;17.77;;
20982;SDS011;10650;51.528;6.748;2023-02-18T03:51:30;23.38;;;16.33;;
20982;SDS011;10650;51.528;6.748;2023-02-18T03:53:59;21.20;;;16.13;;
20982;SDS011;10650;51.528;6.748;2023-02-18T03:56:27;22.63;;;15.25;;
20982;SDS011;10650;51.528;6.748;2023-02-18T03:58:55;20.30;;;14.95;;
20982;SDS011;10650;51.528;6.748;2023-02-18T04:01:22;24.33;;;16.42;;
20982;SDS011;10650;51.528;6.748;2023-02-18T04:03:50;22.65;;;16.13;;
20982;SDS011;10650;51.528;6.748;2023-02-18T04:06:20;21.25;;;15.57;;
20982;SDS011;10650;51.528;6.748;2023-02-18T04:08:48;22.83;;;15.30;;
20982;SDS011;10650;51.528;6.748;2023-02-18T04:11:18;17.15;;;12.93;;
20982;SDS011;10650;51.528;6.748;2023-02-18T04:13:46;19.55;;;15.20;;
20982;SDS011;10650;51.528;6.748;2023-02-18T04:16:14;20.73;;;14.13;;
20982;SDS011;10650;51.528;6.748;2023-02-18T04:18:41;20.10;;;14.27;;
20982;SDS011;10650;51.528;6.748;2023-02-18T04:21:09;18.42;;;13.55;;
20982;SDS011;10650;51.528;6.748;2023-02-18T04:23:37;16.98;;;12.60;;
20982;SDS011;10650;51.528;6.748;2023-02-18T04:26:05;15.13;;;11.15;;
20982;SDS011;10650;51.528;6.748;2023-02-18T04:28:34;16.50;;;12.23;;
20982;SDS011;10650;51.528;6.748;2023-02-18T04:31:02;17.13;;;11.95;;
20982;SDS011;10650;51.528;6.748;2023-02-18T04:33:30;15.20;;;10.63;;
20982;SDS011;10650;51.528;6.748;2023-02-18T04:35:58;14.85;;;10.13;;
20982;SDS011;10650;51.528;6.748;2023-02-18T04:38:26;16.35;;;10.63;;
20982;SDS011;10650;51.528;6.748;2023-02-18T04:40:53;14.80;;;9.68;;
20982;SDS011;10650;51.528;6.748;2023-02-18T04:43:21;14.13;;;9.65;;
20982;SDS011;10650;51.528;6.748;2023-02-18T04:45:50;13.77;;;9.00;;
20982;SDS011;10650;51.528;6.748;2023-02-18T04:48:18;11.95;;;8.23;;
20982;SDS011;10650;51.528;6.748;2023-02-18T04:50:46;12.45;;;8.20;;
20982;SDS011;10650;51.528;6.748;2023-02-18T04:53:14;14.65;;;8.40;;
20982;SDS011;10650;51.528;6.748;2023-02-18T04:55:42;9.45;;;6.22;;
20982;SDS011;10650;51.528;6.748;2023-02-18T04:58:10;10.05;;;6.65;;
20982;SDS011;10650;51.528;6.748;2023-02-18T05:00:37;9.50;;;6.45;;
20982;SDS011;10650;51.528;6.748;2023-02-18T05:03:06;8.35;;;6.07;;
20982;SDS011;10650;51.528;6.748;2023-02-18T05:05:34;6.82;;;5.50;;
20982;SDS011;10650;51.528;6.748;2023-02-18T05:08:02;8.07;;;5.63;;
20982;SDS011;10650;51.528;6.748;2023-02-18T05:10:31;8.65;;;5.90;;
20982;SDS011;10650;51.528;6.748;2023-02-18T05:12:59;8.32;;;5.30;;
20982;SDS011;10650;51.528;6.748;2023-02-18T05:15:27;6.22;;;4.65;;
20982;SDS011;10650;51.528;6.748;2023-02-18T05:17:55;6.22;;;4.45;;
20982;SDS011;10650;51.528;6.748;2023-02-18T05:20:24;6.50;;;4.65;;
20982;SDS011;10650;51.528;6.748;2023-02-18T05:22:51;5.63;;;4.43;;
20982;SDS011;10650;51.528;6.748;2023-02-18T05:25:19;6.00;;;4.50;;
20982;SDS011;10650;51.528;6.748;2023-02-18T05:27:47;6.10;;;4.43;;
20982;SDS011;10650;51.528;6.748;2023-02-18T05:30:15;4.63;;;4.03;;
20982;SDS011;10650;51.528;6.748;2023-02-18T05:32:44;4.45;;;3.65;;
20982;SDS011;10650;51.528;6.748;2023-02-18T05:35:12;5.70;;;4.32;;
20982;SDS011;10650;51.528;6.748;2023-02-18T05:37:41;4.10;;;3.40;;
20982;SDS011;10650;51.528;6.748;2023-02-18T05:40:10;3.85;;;3.50;;
20982;SDS011;10650;51.528;6.748;2023-02-18T05:42:38;3.38;;;2.85;;
20982;SDS011;10650;51.528;6.748;2023-02-18T05:45:06;3.80;;;3.22;;
20982;SDS011;10650;51.528;6.748;2023-02-18T05:47:35;3.83;;;2.83;;
20982;SDS011;10650;51.528;6.748;2023-02-18T05:50:03;3.15;;;2.75;;
20982;SDS011;10650;51.528;6.748;2023-02-18T05:52:32;3.60;;;2.75;;
20982;SDS011;10650;51.528;6.748;2023-02-18T05:55:01;3.55;;;3.03;;
20982;SDS011;10650;51.528;6.748;2023-02-18T05:57:29;3.35;;;3.05;;
20982;SDS011;10650;51.528;6.748;2023-02-18T05:59:57;3.47;;;2.60;;
20982;SDS011;10650;51.528;6.748;2023-02-18T06:02:25;3.85;;;2.97;;
20982;SDS011;10650;51.528;6.748;2023-02-18T06:04:53;4.13;;;2.97;;
20982;SDS011;10650;51.528;6.748;2023-02-18T06:07:21;3.83;;;2.70;;
20982;SDS011;10650;51.528;6.748;2023-02-18T06:09:49;3.33;;;3.00;;
20982;SDS011;10650;51.528;6.748;2023-02-18T06:12:18;3.47;;;2.97;;
20982;SDS011;10650;51.528;6.748;2023-02-18T06:14:46;3.67;;;2.65;;
20982;SDS011;10650;51.528;6.748;2023-02-18T06:17:14;3.38;;;2.63;;
20982;SDS011;10650;51.528;6.748;2023-02-18T06:19:43;4.53;;;2.97;;
20982;SDS011;10650;51.528;6.748;2023-02-18T06:22:11;3.28;;;2.80;;
20982;SDS011;10650;51.528;6.748;2023-02-18T06:24:39;3.70;;;2.90;;
20982;SDS011;10650;51.528;6.748;2023-02-18T06:27:07;4.50;;;2.70;;
20982;SDS011;10650;51.528;6.748;2023-02-18T06:29:36;3.20;;;2.53;;
20982;SDS011;10650;51.528;6.748;2023-02-18T06:32:04;3.25;;;2.60;;
20982;SDS011;10650;51.528;6.748;2023-02-18T06:34:32;3.15;;;2.60;;
20982;SDS011;10650;51.528;6.748;2023-02-18T06:37:00;3.00;;;2.50;;
20982;SDS011;10650;51.528;6.748;2023-02-18T06:39:28;3.22;;;2.40;;
20982;SDS011;10650;51.528;6.748;2023-02-18T06:41:55;3.33;;;2.70;;
20982;SDS011;10650;51.528;6.748;2023-02-18T06:44:23;3.80;;;2.72;;
20982;SDS011;10650;51.528;6.748;2023-02-18T06:46:52;3.97;;;3.03;;
20982;SDS011;10650;51.528;6.748;2023-02-18T06:49:20;3.95;;;2.88;;
20982;SDS011;10650;51.528;6.748;2023-02-18T06:51:48;3.08;;;2.58;;
20982;SDS011;10650;51.528;6.748;2023-02-18T06:54:15;3.10;;;2.55;;
20982;SDS011;10650;51.528;6.748;2023-02-18T06:56:43;3.20;;;2.85;;
20982;SDS011;10650;51.528;6.748;2023-02-18T06:59:11;4.20;;;2.85;;
20982;SDS011;10650;51.528;6.748;2023-02-18T07:01:39;3.13;;;2.83;;
20982;SDS011;10650;51.528;6.748;2023-02-18T07:04:08;4.65;;;3.20;;
20982;SDS011;10650;51.528;6.748;2023-02-18T07:06:35;4.78;;;3.17;;
20982;SDS011;10650;51.528;6.748;2023-02-18T07:09:03;4.55;;;3.53;;
20982;SDS011;10650;51.528;6.748;2023-02-18T07:11:33;4.97;;;4.00;;
20982;SDS011;10650;51.528;6.748;2023-02-18T07:14:00;4.82;;;3.35;;
20982;SDS011;10650;51.528;6.748;2023-02-18T07:16:28;4.57;;;3.50;;
20982;SDS011;10650;51.528;6.748;2023-02-18T07:18:56;3.75;;;3.10;;
20982;SDS011;10650;51.528;6.748;2023-02-18T07:21:25;4.38;;;2.97;;
20982;SDS011;10650;51.528;6.748;2023-02-18T07:23:53;5.32;;;3.45;;
20982;SDS011;10650;51.528;6.748;2023-02-18T07:26:21;5.03;;;3.58;;
20982;SDS011;10650;51.528;6.748;2023-02-18T07:28:48;5.32;;;3.63;;
20982;SDS011;10650;51.528;6.748;2023-02-18T07:31:16;4.10;;;3.15;;
20982;SDS011;10650;51.528;6.748;2023-02-18T07:33:44;4.40;;;3.35;;
20982;SDS011;10650;51.528;6.748;2023-02-18T07:36:12;4.35;;;3.40;;
20982;SDS011;10650;51.528;6.748;2023-02-18T07:38:41;5.28;;;4.15;;
20982;SDS011;10650;51.528;6.748;2023-02-18T07:41:12;4.32;;;3.38;;
20982;SDS011;10650;51.528;6.748;2023-02-18T07:43:44;4.97;;;3.78;;
20982;SDS011;10650;51.528;6.748;2023-02-18T07:46:12;3.97;;;3.55;;
20982;SDS011;10650;51.528;6.748;2023-02-18T07:48:40;5.28;;;3.90;;
20982;SDS011;10650;51.528;6.748;2023-02-18T07:51:08;5.95;;;3.60;;
20982;SDS011;10650;51.528;6.748;2023-02-18T07:53:37;3.42;;;2.95;;
20982;SDS011;10650;51.528;6.748;2023-02-18T07:56:07;3.50;;;3.20;;
20982;SDS011;10650;51.528;6.748;2023-02-18T07:58:37;3.72;;;3.28;;
20982;SDS011;10650;51.528;6.748;2023-02-18T08:01:05;3.45;;;2.78;;
20982;SDS011;10650;51.528;6.748;2023-02-18T08:03:34;4.22;;;3.13;;
20982;SDS011;10650;51.528;6.748;2023-02-18T08:06:03;4.32;;;3.40;;
20982;SDS011;10650;51.528;6.748;2023-02-18T08:08:32;2.50;;;2.30;;
20982;SDS011;10650;51.528;6.748;2023-02-18T08:11:02;2.60;;;2.33;;
20982;SDS011;10650;51.528;6.748;2023-02-18T08:13:46;3.10;;;2.80;;
20982;SDS011;10650;51.528;6.748;2023-02-18T08:16:14;3.03;;;2.55;;
20982;SDS011;10650;51.528;6.748;2023-02-18T08:18:43;2.97;;;2.67;;
20982;SDS011;10650;51.528;6.748;2023-02-18T08:21:13;3.08;;;2.58;;
20982;SDS011;10650;51.528;6.748;2023-02-18T08:23:41;3.17;;;2.50;;
20982;SDS011;10650;51.528;6.748;2023-02-18T08:26:09;3.40;;;2.63;;
20982;SDS011;10650;51.528;6.748;2023-02-18T08:28:37;4.32;;;2.70;;
20982;SDS011;10650;51.528;6.748;2023-02-18T08:31:07;4.03;;;2.95;;
20982;SDS011;10650;51.528;6.748;2023-02-18T08:33:44;3.78;;;3.13;;
20982;SDS011;10650;51.528;6.748;2023-02-18T08:36:12;4.00;;;2.97;;
20982;SDS011;10650;51.528;6.748;2023-02-18T08:38:41;5.00;;;3.10;;
20982;SDS011;10650;51.528;6.748;2023-02-18T08:41:08;4.55;;;3.00;;
20982;SDS011;10650;51.528;6.748;2023-02-18T08:43:37;4.95;;;3.50;;
20982;SDS011;10650;51.528;6.748;2023-02-18T08:46:04;3.85;;;3.42;;
20982;SDS011;10650;51.528;6.748;2023-02-18T08:48:41;4.93;;;2.97;;
20982;SDS011;10650;51.528;6.748;2023-02-18T08:51:10;5.70;;;3.50;;
20982;SDS011;10650;51.528;6.748;2023-02-18T08:53:39;4.93;;;3.00;;
20982;SDS011;10650;51.528;6.748;2023-02-18T08:56:07;5.20;;;3.50;;
20982;SDS011;10650;51.528;6.748;2023-02-18T08:58:36;6.32;;;3.38;;
20982;SDS011;10650;51.528;6.748;2023-02-18T09:01:04;9.73;;;3.70;;
20982;SDS011;10650;51.528;6.748;2023-02-18T09:03:36;5.25;;;3.30;;
20982;SDS011;10650;51.528;6.748;2023-02-18T09:06:04;7.70;;;3.30;;
20982;SDS011;10650;51.528;6.748;2023-02-18T09:08:32;9.00;;;3.75;;
20982;SDS011;10650;51.528;6.748;2023-02-18T09:11:00;11.13;;;3.90;;
20982;SDS011;10650;51.528;6.748;2023-02-18T09:13:30;8.52;;;3.67;;
20982;SDS011;10650;51.528;6.748;2023-02-18T09:16:00;9.10;;;3.92;;
20982;SDS011;10650;51.528;6.748;2023-02-18T09:18:31;8.85;;;3.90;;
20982;SDS011;10650;51.528;6.748;2023-02-18T09:21:00;9.25;;;4.13;;
20982;SDS011;10650;51.528;6.748;2023-02-18T09:23:30;10.15;;;3.80;;
20982;SDS011;10650;51.528;6.748;2023-02-18T09:25:58;7.40;;;3.80;;
20982;SDS011;10650;51.528;6.748;2023-02-18T09:28:27;8.63;;;3.95;;
20982;SDS011;10650;51.528;6.748;2023-02-18T09:30:55;10.48;;;4.30;;
20982;SDS011;10650;51.528;6.748;2023-02-18T09:33:22;11.73;;;4.40;;
20982;SDS011;10650;51.528;6.748;2023-02-18T09:35:52;10.18;;;4.20;;
20982;SDS011;10650;51.528;6.748;2023-02-18T09:38:20;10.10;;;4.20;;
20982;SDS011;10650;51.528;6.748;2023-02-18T09:40:49;8.90;;;4.15;;
20982;SDS011;10650;51.528;6.748;2023-02-18T09:43:22;8.75;;;4.53;;
20982;SDS011;10650;51.528;6.748;2023-02-18T09:45:55;13.90;;;4.95;;
20982;SDS011;10650;51.528;6.748;2023-02-18T09:48:26;12.27;;;4.57;;
20982;SDS011;10650;51.528;6.748;2023-02-18T09:50:59;13.90;;;4.50;;
20982;SDS011;10650;51.528;6.748;2023-02-18T09:53:26;12.90;;;5.20;;
20982;SDS011;10650;51.528;6.748;2023-02-18T09:55:55;8.57;;;4.20;;
20982;SDS011;10650;51.528;6.748;2023-02-18T09:58:24;13.43;;;4.55;;
20982;SDS011;10650;51.528;6.748;2023-02-18T10:01:03;10.98;;;4.75;;
20982;SDS011;10650;51.528;6.748;2023-02-18T10:03:37;16.05;;;4.70;;
20982;SDS011;10650;51.528;6.748;2023-02-18T10:06:09;12.27;;;4.28;;
20982;SDS011;10650;51.528;6.748;2023-02-18T10:08:43;14.43;;;5.47;;
20982;SDS011;10650;51.528;6.748;2023-02-18T10:11:13;23.17;;;11.00;;
20982;SDS011;10650;51.528;6.748;2023-02-18T10:13:43;11.45;;;4.90;;
20982;SDS011;10650;51.528;6.748;2023-02-18T10:16:14;10.15;;;4.40;;
20982;SDS011;10650;51.528;6.748;2023-02-18T10:18:44;11.55;;;5.13;;
20982;SDS011;10650;51.528;6.748;2023-02-18T10:21:17;12.10;;;4.57;;
20982;SDS011;10650;51.528;6.748;2023-02-18T10:23:53;15.30;;;4.90;;
20982;SDS011;10650;51.528;6.748;2023-02-18T10:26:26;11.35;;;4.40;;
20982;SDS011;10650;51.528;6.748;2023-02-18T10:28:56;10.63;;;4.38;;
20982;SDS011;10650;51.528;6.748;2023-02-18T10:31:35;10.93;;;4.47;;
20982;SDS011;10650;51.528;6.748;2023-02-18T10:34:06;8.85;;;4.03;;
20982;SDS011;10650;51.528;6.748;2023-02-18T10:36:46;13.98;;;5.30;;
20982;SDS011;10650;51.528;6.748;2023-02-18T10:39:20;7.80;;;4.50;;
20982;SDS011;10650;51.528;6.748;2023-02-18T10:42:03;14.40;;;5.03;;
20982;SDS011;10650;51.528;6.748;2023-02-18T10:44:43;17.38;;;7.80;;
20982;SDS011;10650;51.528;6.748;2023-02-18T10:47:24;15.40;;;5.05;;
20982;SDS011;10650;51.528;6.748;2023-02-18T10:50:07;10.80;;;5.30;;
20982;SDS011;10650;51.528;6.748;2023-02-18T10:52:39;11.90;;;5.15;;
20982;SDS011;10650;51.528;6.748;2023-02-18T10:55:10;11.32;;;4.50;;
20982;SDS011;10650;51.528;6.748;2023-02-18T10:57:48;14.63;;;6.43;;
20982;SDS011;10650;51.528;6.748;2023-02-18T11:03:00;10.35;;;4.60;;
20982;SDS011;10650;51.528;6.748;2023-02-18T11:05:33;11.00;;;4.80;;
20982;SDS011;10650;51.528;6.748;2023-02-18T11:08:05;11.35;;;4.30;;
20982;SDS011;10650;51.528;6.748;2023-02-18T11:13:06;12.13;;;4.85;;
20982;SDS011;10650;51.528;6.748;2023-02-18T11:15:36;14.27;;;4.88;;
20982;SDS011;10650;51.528;6.748;2023-02-18T11:18:14;12.32;;;5.75;;
20982;SDS011;10650;51.528;6.748;2023-02-18T11:20:55;10.57;;;5.03;;
20982;SDS011;10650;51.528;6.748;2023-02-18T11:23:27;13.20;;;5.88;;
20982;SDS011;10650;51.528;6.748;2023-02-18T11:25:56;11.63;;;5.63;;
20982;SDS011;10650;51.528;6.748;2023-02-18T11:31:16;14.00;;;5.97;;
20982;SDS011;10650;51.528;6.748;2023-02-18T11:33:50;12.10;;;6.40;;
20982;SDS011;10650;51.528;6.748;2023-02-18T11:36:21;12.65;;;5.47;;
20982;SDS011;10650;51.528;6.748;2023-02-18T11:38:53;9.60;;;6.00;;
20982;SDS011;10650;51.528;6.748;2023-02-18T11:41:28;11.05;;;6.10;;
20982;SDS011;10650;51.528;6.748;2023-02-18T11:43:59;10.63;;;6.35;;
20982;SDS011;10650;51.528;6.748;2023-02-18T11:46:28;10.35;;;5.55;;
20982;SDS011;10650;51.528;6.748;2023-02-18T11:48:56;10.88;;;6.30;;
20982;SDS011;10650;51.528;6.748;2023-02-18T11:51:38;12.25;;;6.10;;
20982;SDS011;10650;51.528;6.748;2023-02-18T11:54:20;8.63;;;5.32;;
20982;SDS011;10650;51.528;6.748;2023-02-18T11:56:53;9.52;;;5.80;;
20982;SDS011;10650;51.528;6.748;2023-02-18T11:59:22;10.00;;;5.68;;
20982;SDS011;10650;51.528;6.748;2023-02-18T12:01:52;7.60;;;4.72;;
20982;SDS011;10650;51.528;6.748;2023-02-18T12:07:00;9.07;;;5.50;;
20982;SDS011;10650;51.528;6.748;2023-02-18T12:09:41;10.93;;;7.57;;
20982;SDS011;10650;51.528;6.748;2023-02-18T12:12:13;8.20;;;5.85;;
20982;SDS011;10650;51.528;6.748;2023-02-18T12:14:44;9.25;;;5.75;;
20982;SDS011;10650;51.528;6.748;2023-02-18T12:20:23;8.13;;;5.65;;
20982;SDS011;10650;51.528;6.748;2023-02-18T12:23:05;6.78;;;5.18;;
20982;SDS011;10650;51.528;6.748;2023-02-18T12:25:46;8.90;;;5.68;;
20982;SDS011;10650;51.528;6.748;2023-02-18T12:28:25;8.15;;;6.25;;
20982;SDS011;10650;51.528;6.748;2023-02-18T12:34:06;6.85;;;5.45;;
20982;SDS011;10650;51.528;6.748;2023-02-18T12:36:48;7.70;;;5.80;;
20982;SDS011;10650;51.528;6.748;2023-02-18T12:39:27;7.35;;;5.68;;
20982;SDS011;10650;51.528;6.748;2023-02-18T12:45:07;9.38;;;7.20;;
20982;SDS011;10650;51.528;6.748;2023-02-18T12:47:57;9.93;;;7.07;;
20982;SDS011;10650;51.528;6.748;2023-02-18T12:50:48;10.43;;;7.30;;
20982;SDS011;10650;51.528;6.748;2023-02-18T12:53:36;8.70;;;7.18;;
20982;SDS011;10650;51.528;6.748;2023-02-18T12:59:10;9.10;;;6.57;;
20982;SDS011;10650;51.528;6.748;2023-02-18T13:01:51;9.52;;;7.75;;
20982;SDS011;10650;51.528;6.748;2023-02-18T13:04:26;10.70;;;7.10;;
20982;SDS011;10650;51.528;6.748;2023-02-18T13:07:17;10.27;;;7.30;;
20982;SDS011;10650;51.528;6.748;2023-02-18T13:13:04;12.82;;;8.13;;
20982;SDS011;10650;51.528;6.748;2023-02-18T13:15:39;12.70;;;9.40;;
20982;SDS011;10650;51.528;6.748;2023-02-18T13:18:11;12.95;;;8.27;;
20982;SDS011;10650;51.528;6.748;2023-02-18T13:20:44;11.60;;;8.90;;
20982;SDS011;10650;51.528;6.748;2023-02-18T13:23:16;8.52;;;6.95;;
20982;SDS011;10650;51.528;6.748;2023-02-18T13:25:46;10.55;;;8.10;;
20982;SDS011;10650;51.528;6.748;2023-02-18T13:28:21;10.60;;;8.98;;
20982;SDS011;10650;51.528;6.748;2023-02-18T13:30:57;10.93;;;9.23;;
20982;SDS011;10650;51.528;6.748;2023-02-18T13:33:35;12.43;;;9.43;;
20982;SDS011;10650;51.528;6.748;2023-02-18T13:36:10;13.25;;;9.85;;
20982;SDS011;10650;51.528;6.748;2023-02-18T13:38:48;14.30;;;10.65;;
20982;SDS011;10650;51.528;6.748;2023-02-18T13:41:21;14.57;;;10.45;;
20982;SDS011;10650;51.528;6.748;2023-02-18T13:43:51;16.48;;;12.07;;
20982;SDS011;10650;51.528;6.748;2023-02-18T13:46:21;15.82;;;11.80;;
20982;SDS011;10650;51.528;6.748;2023-02-18T13:48:50;20.95;;;14.60;;
20982;SDS011;10650;51.528;6.748;2023-02-18T13:51:27;18.00;;;13.00;;
20982;SDS011;10650;51.528;6.748;2023-02-18T13:53:59;18.13;;;12.73;;
20982;SDS011;10650;51.528;6.748;2023-02-18T13:56:30;17.58;;;13.20;;
20982;SDS011;10650;51.528;6.748;2023-02-18T13:59:05;17.42;;;13.02;;
20982;SDS011;10650;51.528;6.748;2023-02-18T14:01:39;15.07;;;12.10;;
20982;SDS011;10650;51.528;6.748;2023-02-18T14:09:52;20.02;;;13.70;;
20982;SDS011;10650;51.528;6.748;2023-02-18T14:12:25;21.75;;;13.82;;
20982;SDS011;10650;51.528;6.748;2023-02-18T14:18:20;18.48;;;13.18;;
20982;SDS011;10650;51.528;6.748;2023-02-18T14:20:51;20.40;;;13.93;;
20982;SDS011;10650;51.528;6.748;2023-02-18T14:23:37;20.63;;;14.65;;
20982;SDS011;10650;51.528;6.748;2023-02-18T14:26:07;20.75;;;15.20;;
20982;SDS011;10650;51.528;6.748;2023-02-18T14:28:48;20.67;;;14.75;;
20982;SDS011;10650;51.528;6.748;2023-02-18T14:31:32;20.63;;;14.73;;
20982;SDS011;10650;51.528;6.748;2023-02-18T14:34:17;23.23;;;16.13;;
20982;SDS011;10650;51.528;6.748;2023-02-18T14:37:15;17.90;;;14.57;;
20982;SDS011;10650;51.528;6.748;2023-02-18T14:39:56;23.20;;;14.85;;
20982;SDS011;10650;51.528;6.748;2023-02-18T14:42:34;19.50;;;15.07;;
20982;SDS011;10650;51.528;6.748;2023-02-18T14:45:16;22.63;;;15.95;;
20982;SDS011;10650;51.528;6.748;2023-02-18T14:48:04;21.08;;;15.23;;
20982;SDS011;10650;51.528;6.748;2023-02-18T14:50:45;22.85;;;16.38;;
20982;SDS011;10650;51.528;6.748;2023-02-18T14:53:16;29.10;;;20.33;;
20982;SDS011;10650;51.528;6.748;2023-02-18T14:55:47;28.55;;;20.92;;
20982;SDS011;10650;51.528;6.748;2023-02-18T14:58:22;29.85;;;20.65;;
20982;SDS011;10650;51.528;6.748;2023-02-18T15:00:54;26.73;;;18.23;;
20982;SDS011;10650;51.528;6.748;2023-02-18T15:03:22;26.40;;;18.65;;
20982;SDS011;10650;51.528;6.748;2023-02-18T15:05:54;25.45;;;17.52;;
20982;SDS011;10650;51.528;6.748;2023-02-18T15:08:23;23.05;;;17.77;;
20982;SDS011;10650;51.528;6.748;2023-02-18T15:10:52;20.42;;;15.98;;
20982;SDS011;10650;51.528;6.748;2023-02-18T15:13:25;22.83;;;17.35;;
20982;SDS011;10650;51.528;6.748;2023-02-18T15:15:56;27.45;;;19.75;;
20982;SDS011;10650;51.528;6.748;2023-02-18T15:18:30;26.80;;;19.75;;
20982;SDS011;10650;51.528;6.748;2023-02-18T15:21:07;28.48;;;20.25;;
20982;SDS011;10650;51.528;6.748;2023-02-18T15:23:47;24.05;;;18.25;;
20982;SDS011;10650;51.528;6.748;2023-02-18T15:26:15;26.08;;;19.52;;
20982;SDS011;10650;51.528;6.748;2023-02-18T15:28:50;24.88;;;18.85;;
20982;SDS011;10650;51.528;6.748;2023-02-18T15:31:24;25.10;;;18.80;;
20982;SDS011;10650;51.528;6.748;2023-02-18T15:33:52;23.00;;;17.60;;
20982;SDS011;10650;51.528;6.748;2023-02-18T15:36:24;23.70;;;19.08;;
20982;SDS011;10650;51.528;6.748;2023-02-18T15:41:21;26.92;;;17.75;;
20982;SDS011;10650;51.528;6.748;2023-02-18T15:43:53;24.13;;;18.17;;
20982;SDS011;10650;51.528;6.748;2023-02-18T15:46:25;24.45;;;18.67;;
20982;SDS011;10650;51.528;6.748;2023-02-18T15:48:54;25.02;;;17.92;;